Erquelinnes, Belgium
Current Conditions -  °F | °C
As of 2:20 PM on Thursday 27 Nov 2014 (Local Time) from EBCI Reporting Station
Light Rain Light Rain  
Wind Chill: 45°   Ceiling: 700
Heat Index: 48°   Visibility: 3mi
Dew Point: 46°   Wind: 7mph
Humidity: 93%   Direction: 140°SE
Pressure: 29.68"   Gusts: NA
Location:  50.31°N, 4.11°E
Report Text: EBCI 271320Z 14006KT 5000 -RA SCT005 BKN007 09/08 Q1005 TEMPO 3000 RA
Loading
Personal Weather Stations






























Interactive Weather Map New forecast layout! Learn more

10-Day Weather Forecast

Advertisements
Track Severe Weather on mobile